sensor_id;sensor_type;location;lat;lon;timestamp;P1;durP1;ratioP1;P2;durP2;ratioP2
67090;SDS011;54007;55.818;49.058;2023-04-12T09:30:18;16.95;;;7.87;;
67090;SDS011;54007;55.818;49.058;2023-04-12T09:32:44;15.75;;;7.83;;
67090;SDS011;54007;55.818;49.058;2023-04-12T09:35:09;16.65;;;7.80;;
67090;SDS011;54007;55.818;49.058;2023-04-12T09:37:35;19.23;;;7.83;;
67090;SDS011;54007;55.818;49.058;2023-04-12T09:40:03;27.50;;;7.80;;
67090;SDS011;54007;55.818;49.058;2023-04-12T09:42:27;34.93;;;9.20;;
67090;SDS011;54007;55.818;49.058;2023-04-12T09:44:53;22.17;;;8.13;;
67090;SDS011;54007;55.818;49.058;2023-04-12T09:47:19;19.65;;;7.80;;
67090;SDS011;54007;55.818;49.058;2023-04-12T09:49:45;16.73;;;8.60;;
67090;SDS011;54007;55.818;49.058;2023-04-12T09:52:11;13.68;;;7.53;;
67090;SDS011;54007;55.818;49.058;2023-04-12T09:54:39;13.33;;;7.90;;
67090;SDS011;54007;55.818;49.058;2023-04-12T09:57:03;14.25;;;7.53;;
67090;SDS011;54007;55.818;49.058;2023-04-12T09:59:28;16.85;;;7.20;;
67090;SDS011;54007;55.818;49.058;2023-04-12T10:01:54;44.47;;;8.63;;
67090;SDS011;54007;55.818;49.058;2023-04-12T10:04:20;14.58;;;7.10;;
67090;SDS011;54007;55.818;49.058;2023-04-12T10:06:46;16.87;;;7.40;;
67090;SDS011;54007;55.818;49.058;2023-04-12T10:09:12;14.93;;;6.90;;
67090;SDS011;54007;55.818;49.058;2023-04-12T10:11:38;14.53;;;7.20;;
67090;SDS011;54007;55.818;49.058;2023-04-12T10:14:03;12.35;;;6.83;;
67090;SDS011;54007;55.818;49.058;2023-04-12T10:16:29;16.03;;;7.57;;
67090;SDS011;54007;55.818;49.058;2023-04-12T10:18:55;20.02;;;6.97;;
67090;SDS011;54007;55.818;49.058;2023-04-12T10:21:21;13.25;;;7.05;;
67090;SDS011;54007;55.818;49.058;2023-04-12T10:23:47;21.90;;;7.83;;
67090;SDS011;54007;55.818;49.058;2023-04-12T10:26:14;15.30;;;7.15;;
67090;SDS011;54007;55.818;49.058;2023-04-12T10:28:39;19.53;;;7.40;;
67090;SDS011;54007;55.818;49.058;2023-04-12T10:33:48;29.63;;;8.43;;
67090;SDS011;54007;55.818;49.058;2023-04-12T10:36:14;24.80;;;7.45;;
67090;SDS011;54007;55.818;49.058;2023-04-12T10:38:44;12.97;;;6.67;;
67090;SDS011;54007;55.818;49.058;2023-04-12T10:41:09;21.77;;;8.05;;
67090;SDS011;54007;55.818;49.058;2023-04-12T10:43:36;23.98;;;7.70;;
67090;SDS011;54007;55.818;49.058;2023-04-12T10:46:02;17.60;;;7.23;;
67090;SDS011;54007;55.818;49.058;2023-04-12T10:51:13;22.75;;;7.15;;
67090;SDS011;54007;55.818;49.058;2023-04-12T10:53:40;15.53;;;6.92;;
67090;SDS011;54007;55.818;49.058;2023-04-12T11:01:16;18.48;;;7.58;;
67090;SDS011;54007;55.818;49.058;2023-04-12T11:04:17;14.83;;;7.40;;
67090;SDS011;54007;55.818;49.058;2023-04-12T11:06:14;18.67;;;8.45;;
67090;SDS011;54007;55.818;49.058;2023-04-12T11:08:40;20.77;;;9.15;;
67090;SDS011;54007;55.818;49.058;2023-04-12T11:11:17;27.00;;;8.70;;
67090;SDS011;54007;55.818;49.058;2023-04-12T11:13:35;14.35;;;6.95;;
67090;SDS011;54007;55.818;49.058;2023-04-12T11:16:02;17.67;;;7.95;;
67090;SDS011;54007;55.818;49.058;2023-04-12T11:18:26;18.23;;;7.40;;
67090;SDS011;54007;55.818;49.058;2023-04-12T11:20:52;17.02;;;6.85;;
67090;SDS011;54007;55.818;49.058;2023-04-12T11:23:18;16.93;;;7.10;;
67090;SDS011;54007;55.818;49.058;2023-04-12T11:25:48;15.15;;;6.65;;
67090;SDS011;54007;55.818;49.058;2023-04-12T11:28:10;14.18;;;7.53;;
67090;SDS011;54007;55.818;49.058;2023-04-12T11:30:36;11.67;;;6.60;;
67090;SDS011;54007;55.818;49.058;2023-04-12T11:33:01;17.60;;;6.90;;
67090;SDS011;54007;55.818;49.058;2023-04-12T11:35:27;18.57;;;6.70;;
67090;SDS011;54007;55.818;49.058;2023-04-12T11:37:53;15.72;;;6.80;;
67090;SDS011;54007;55.818;49.058;2023-04-12T11:40:20;11.12;;;6.53;;
67090;SDS011;54007;55.818;49.058;2023-04-12T11:42:45;12.33;;;6.47;;
67090;SDS011;54007;55.818;49.058;2023-04-12T11:45:11;29.02;;;7.80;;
67090;SDS011;54007;55.818;49.058;2023-04-12T11:47:41;13.05;;;6.50;;
67090;SDS011;54007;55.818;49.058;2023-04-12T11:50:02;14.67;;;6.73;;
67090;SDS011;54007;55.818;49.058;2023-04-12T11:52:31;12.28;;;5.83;;
67090;SDS011;54007;55.818;49.058;2023-04-12T11:54:54;14.60;;;6.47;;
67090;SDS011;54007;55.818;49.058;2023-04-12T11:57:20;18.33;;;6.40;;
67090;SDS011;54007;55.818;49.058;2023-04-12T11:59:55;43.52;;;8.53;;
67090;SDS011;54007;55.818;49.058;2023-04-12T12:02:19;17.67;;;7.80;;
67090;SDS011;54007;55.818;49.058;2023-04-12T12:04:50;15.72;;;7.05;;
67090;SDS011;54007;55.818;49.058;2023-04-12T12:07:16;17.97;;;6.60;;
67090;SDS011;54007;55.818;49.058;2023-04-12T12:09:42;12.45;;;6.40;;
67090;SDS011;54007;55.818;49.058;2023-04-12T12:12:11;13.43;;;6.53;;
67090;SDS011;54007;55.818;49.058;2023-04-12T12:14:34;18.77;;;6.83;;
67090;SDS011;54007;55.818;49.058;2023-04-12T12:17:00;18.95;;;6.60;;
67090;SDS011;54007;55.818;49.058;2023-04-12T12:19:29;13.40;;;6.37;;
67090;SDS011;54007;55.818;49.058;2023-04-12T12:22:04;14.60;;;6.53;;
67090;SDS011;54007;55.818;49.058;2023-04-12T12:24:21;15.35;;;7.53;;
67090;SDS011;54007;55.818;49.058;2023-04-12T12:26:48;14.47;;;8.07;;
67090;SDS011;54007;55.818;49.058;2023-04-12T12:29:15;16.67;;;6.80;;
67090;SDS011;54007;55.818;49.058;2023-04-12T12:31:38;14.97;;;6.70;;
67090;SDS011;54007;55.818;49.058;2023-04-12T12:34:03;13.80;;;6.67;;
67090;SDS011;54007;55.818;49.058;2023-04-12T12:36:30;14.68;;;6.00;;
67090;SDS011;54007;55.818;49.058;2023-04-12T12:38:55;14.90;;;6.53;;
67090;SDS011;54007;55.818;49.058;2023-04-12T12:41:21;14.10;;;6.53;;
67090;SDS011;54007;55.818;49.058;2023-04-12T12:43:47;17.27;;;6.73;;
67090;SDS011;54007;55.818;49.058;2023-04-12T12:46:13;15.30;;;7.10;;
67090;SDS011;54007;55.818;49.058;2023-04-12T12:48:42;10.18;;;6.47;;
67090;SDS011;54007;55.818;49.058;2023-04-12T12:51:08;14.97;;;6.87;;
67090;SDS011;54007;55.818;49.058;2023-04-12T12:53:34;11.83;;;6.37;;
67090;SDS011;54007;55.818;49.058;2023-04-12T12:55:59;13.20;;;6.37;;
67090;SDS011;54007;55.818;49.058;2023-04-12T12:58:25;12.40;;;6.53;;
67090;SDS011;54007;55.818;49.058;2023-04-12T13:00:51;16.67;;;7.10;;
67090;SDS011;54007;55.818;49.058;2023-04-12T13:03:17;19.07;;;7.07;;
67090;SDS011;54007;55.818;49.058;2023-04-12T13:05:43;13.08;;;6.72;;
67090;SDS011;54007;55.818;49.058;2023-04-12T13:08:08;17.73;;;6.75;;
67090;SDS011;54007;55.818;49.058;2023-04-12T13:10:34;12.83;;;6.57;;
67090;SDS011;54007;55.818;49.058;2023-04-12T13:13:01;13.15;;;6.80;;
67090;SDS011;54007;55.818;49.058;2023-04-12T13:15:26;13.67;;;6.80;;
67090;SDS011;54007;55.818;49.058;2023-04-12T13:17:56;20.92;;;7.10;;
67090;SDS011;54007;55.818;49.058;2023-04-12T13:20:22;17.12;;;7.00;;
67090;SDS011;54007;55.818;49.058;2023-04-12T13:22:54;12.88;;;6.85;;
67090;SDS011;54007;55.818;49.058;2023-04-12T13:25:20;12.90;;;6.83;;
67090;SDS011;54007;55.818;49.058;2023-04-12T13:27:49;13.78;;;7.30;;
67090;SDS011;54007;55.818;49.058;2023-04-12T13:30:12;15.45;;;7.00;;
67090;SDS011;54007;55.818;49.058;2023-04-12T13:32:37;18.63;;;7.93;;
67090;SDS011;54007;55.818;49.058;2023-04-12T13:35:03;32.08;;;8.95;;
67090;SDS011;54007;55.818;49.058;2023-04-12T13:37:29;16.80;;;7.53;;
67090;SDS011;54007;55.818;49.058;2023-04-12T13:39:55;14.67;;;7.80;;
67090;SDS011;54007;55.818;49.058;2023-04-12T13:42:21;16.32;;;7.60;;
67090;SDS011;54007;55.818;49.058;2023-04-12T13:44:47;15.78;;;7.10;;
67090;SDS011;54007;55.818;49.058;2023-04-12T13:47:13;17.67;;;6.70;;
67090;SDS011;54007;55.818;49.058;2023-04-12T13:49:39;17.35;;;7.15;;
67090;SDS011;54007;55.818;49.058;2023-04-12T13:52:05;16.00;;;8.60;;
67090;SDS011;54007;55.818;49.058;2023-04-12T13:54:31;14.07;;;7.60;;
67090;SDS011;54007;55.818;49.058;2023-04-12T13:56:56;16.67;;;7.12;;
67090;SDS011;54007;55.818;49.058;2023-04-12T13:59:23;18.62;;;7.15;;
67090;SDS011;54007;55.818;49.058;2023-04-12T14:01:48;15.33;;;7.00;;
67090;SDS011;54007;55.818;49.058;2023-04-12T14:04:14;14.58;;;6.80;;
67090;SDS011;54007;55.818;49.058;2023-04-12T14:06:40;14.13;;;7.20;;
67090;SDS011;54007;55.818;49.058;2023-04-12T14:09:06;20.93;;;7.90;;
67090;SDS011;54007;55.818;49.058;2023-04-12T14:11:44;19.73;;;7.97;;
67090;SDS011;54007;55.818;49.058;2023-04-12T14:14:10;19.73;;;8.23;;
67090;SDS011;54007;55.818;49.058;2023-04-12T14:16:35;17.75;;;7.53;;
67090;SDS011;54007;55.818;49.058;2023-04-12T14:19:01;17.50;;;7.13;;
67090;SDS011;54007;55.818;49.058;2023-04-12T14:21:27;13.05;;;6.70;;
67090;SDS011;54007;55.818;49.058;2023-04-12T14:23:53;13.27;;;7.30;;
67090;SDS011;54007;55.818;49.058;2023-04-12T14:26:19;17.82;;;7.78;;
67090;SDS011;54007;55.818;49.058;2023-04-12T14:28:45;16.77;;;7.60;;
67090;SDS011;54007;55.818;49.058;2023-04-12T14:31:11;13.67;;;7.53;;
67090;SDS011;54007;55.818;49.058;2023-04-12T14:33:36;19.60;;;7.95;;
67090;SDS011;54007;55.818;49.058;2023-04-12T14:36:06;15.00;;;7.47;;
67090;SDS011;54007;55.818;49.058;2023-04-12T14:38:32;30.40;;;8.28;;
67090;SDS011;54007;55.818;49.058;2023-04-12T14:41:08;20.92;;;7.72;;
67090;SDS011;54007;55.818;49.058;2023-04-12T14:43:33;16.30;;;7.55;;
67090;SDS011;54007;55.818;49.058;2023-04-12T14:45:59;19.30;;;8.13;;
67090;SDS011;54007;55.818;49.058;2023-04-12T14:48:25;19.07;;;8.30;;
67090;SDS011;54007;55.818;49.058;2023-04-12T14:50:51;23.00;;;8.90;;
67090;SDS011;54007;55.818;49.058;2023-04-12T14:53:17;22.60;;;8.00;;
67090;SDS011;54007;55.818;49.058;2023-04-12T14:55:43;19.92;;;7.78;;
67090;SDS011;54007;55.818;49.058;2023-04-12T14:58:09;17.73;;;8.10;;
67090;SDS011;54007;55.818;49.058;2023-04-12T15:00:35;25.03;;;9.60;;
67090;SDS011;54007;55.818;49.058;2023-04-12T15:03:00;24.52;;;9.08;;
67090;SDS011;54007;55.818;49.058;2023-04-12T15:05:26;21.30;;;9.40;;
67090;SDS011;54007;55.818;49.058;2023-04-12T15:07:52;21.30;;;9.63;;
67090;SDS011;54007;55.818;49.058;2023-04-12T15:10:18;25.80;;;9.23;;
67090;SDS011;54007;55.818;49.058;2023-04-12T15:12:44;33.37;;;8.70;;
67090;SDS011;54007;55.818;49.058;2023-04-12T15:15:10;20.80;;;8.00;;
67090;SDS011;54007;55.818;49.058;2023-04-12T15:17:35;20.07;;;8.47;;
67090;SDS011;54007;55.818;49.058;2023-04-12T15:20:01;52.00;;;9.60;;
67090;SDS011;54007;55.818;49.058;2023-04-12T15:22:36;29.87;;;8.40;;
67090;SDS011;54007;55.818;49.058;2023-04-12T15:25:05;20.97;;;8.45;;
67090;SDS011;54007;55.818;49.058;2023-04-12T15:27:28;22.50;;;8.27;;
67090;SDS011;54007;55.818;49.058;2023-04-12T15:29:53;20.57;;;8.65;;
67090;SDS011;54007;55.818;49.058;2023-04-12T15:32:19;27.40;;;9.03;;
67090;SDS011;54007;55.818;49.058;2023-04-12T15:34:45;31.77;;;9.03;;
67090;SDS011;54007;55.818;49.058;2023-04-12T15:37:11;30.82;;;9.58;;
67090;SDS011;54007;55.818;49.058;2023-04-12T15:39:37;27.80;;;9.43;;
67090;SDS011;54007;55.818;49.058;2023-04-12T15:42:03;27.05;;;9.33;;
67090;SDS011;54007;55.818;49.058;2023-04-12T15:44:29;31.37;;;9.88;;
67090;SDS011;54007;55.818;49.058;2023-04-12T15:46:54;33.43;;;10.43;;
67090;SDS011;54007;55.818;49.058;2023-04-12T15:49:20;33.75;;;10.50;;
67090;SDS011;54007;55.818;49.058;2023-04-12T15:51:46;31.93;;;11.12;;
67090;SDS011;54007;55.818;49.058;2023-04-12T15:54:16;40.20;;;11.10;;
67090;SDS011;54007;55.818;49.058;2023-04-12T15:56:42;34.35;;;11.95;;
67090;SDS011;54007;55.818;49.058;2023-04-12T15:59:14;39.53;;;12.45;;
67090;SDS011;54007;55.818;49.058;2023-04-12T16:01:40;38.63;;;12.63;;
67090;SDS011;54007;55.818;49.058;2023-04-12T16:04:06;42.98;;;12.15;;
67090;SDS011;54007;55.818;49.058;2023-04-12T16:06:31;31.80;;;11.55;;
67090;SDS011;54007;55.818;49.058;2023-04-12T16:09:00;32.93;;;11.03;;
67090;SDS011;54007;55.818;49.058;2023-04-12T16:11:26;36.50;;;11.33;;
67090;SDS011;54007;55.818;49.058;2023-04-12T16:13:52;33.75;;;13.10;;
67090;SDS011;54007;55.818;49.058;2023-04-12T16:16:19;27.70;;;10.27;;
67090;SDS011;54007;55.818;49.058;2023-04-12T16:18:44;34.90;;;11.30;;
67090;SDS011;54007;55.818;49.058;2023-04-12T16:21:10;39.40;;;12.80;;
67090;SDS011;54007;55.818;49.058;2023-04-12T16:23:35;44.55;;;12.78;;
67090;SDS011;54007;55.818;49.058;2023-04-12T16:26:01;48.08;;;16.37;;
67090;SDS011;54007;55.818;49.058;2023-04-12T16:28:27;42.83;;;12.77;;
67090;SDS011;54007;55.818;49.058;2023-04-12T16:30:53;48.55;;;14.18;;
67090;SDS011;54007;55.818;49.058;2023-04-12T16:33:19;60.93;;;13.73;;
67090;SDS011;54007;55.818;49.058;2023-04-12T16:35:44;45.55;;;13.22;;
67090;SDS011;54007;55.818;49.058;2023-04-12T16:38:10;57.48;;;18.40;;
67090;SDS011;54007;55.818;49.058;2023-04-12T16:40:36;59.00;;;14.57;;
67090;SDS011;54007;55.818;49.058;2023-04-12T16:43:02;59.70;;;17.02;;
67090;SDS011;54007;55.818;49.058;2023-04-12T16:45:28;65.17;;;18.02;;
67090;SDS011;54007;55.818;49.058;2023-04-12T16:47:54;67.93;;;16.93;;
67090;SDS011;54007;55.818;49.058;2023-04-12T16:50:20;66.95;;;18.35;;
67090;SDS011;54007;55.818;49.058;2023-04-12T16:52:45;67.47;;;23.13;;
67090;SDS011;54007;55.818;49.058;2023-04-12T16:55:11;73.92;;;24.25;;
67090;SDS011;54007;55.818;49.058;2023-04-12T16:57:38;67.37;;;24.25;;
67090;SDS011;54007;55.818;49.058;2023-04-12T17:00:03;66.03;;;20.80;;
67090;SDS011;54007;55.818;49.058;2023-04-12T17:02:29;81.30;;;23.98;;
67090;SDS011;54007;55.818;49.058;2023-04-12T17:04:55;61.98;;;20.65;;
67090;SDS011;54007;55.818;49.058;2023-04-12T17:07:21;66.47;;;19.93;;
67090;SDS011;54007;55.818;49.058;2023-04-12T17:09:46;47.30;;;18.90;;
67090;SDS011;54007;55.818;49.058;2023-04-12T17:12:16;51.00;;;19.63;;
67090;SDS011;54007;55.818;49.058;2023-04-12T17:14:42;64.72;;;20.68;;
67090;SDS011;54007;55.818;49.058;2023-04-12T17:17:15;72.55;;;19.10;;
67090;SDS011;54007;55.818;49.058;2023-04-12T17:19:42;59.23;;;16.60;;
67090;SDS011;54007;55.818;49.058;2023-04-12T17:22:06;64.97;;;19.10;;
67090;SDS011;54007;55.818;49.058;2023-04-12T17:24:32;61.08;;;18.07;;
67090;SDS011;54007;55.818;49.058;2023-04-12T17:26:59;73.42;;;22.20;;
67090;SDS011;54007;55.818;49.058;2023-04-12T17:29:25;56.13;;;16.20;;
67090;SDS011;54007;55.818;49.058;2023-04-12T17:31:51;52.53;;;15.50;;
67090;SDS011;54007;55.818;49.058;2023-04-12T17:34:17;49.47;;;15.63;;
67090;SDS011;54007;55.818;49.058;2023-04-12T17:36:43;54.03;;;14.28;;
67090;SDS011;54007;55.818;49.058;2023-04-12T17:39:09;40.20;;;13.93;;
67090;SDS011;54007;55.818;49.058;2023-04-12T17:41:34;56.37;;;15.87;;
67090;SDS011;54007;55.818;49.058;2023-04-12T17:44:00;62.55;;;17.37;;
67090;SDS011;54007;55.818;49.058;2023-04-12T17:46:26;67.03;;;17.67;;
67090;SDS011;54007;55.818;49.058;2023-04-12T17:48:52;63.87;;;18.15;;
67090;SDS011;54007;55.818;49.058;2023-04-12T17:51:18;72.85;;;18.73;;
67090;SDS011;54007;55.818;49.058;2023-04-12T17:53:44;83.07;;;21.07;;
67090;SDS011;54007;55.818;49.058;2023-04-12T17:56:10;95.42;;;22.90;;
67090;SDS011;54007;55.818;49.058;2023-04-12T17:58:36;102.90;;;22.05;;
67090;SDS011;54007;55.818;49.058;2023-04-12T18:01:02;83.37;;;22.40;;
67090;SDS011;54007;55.818;49.058;2023-04-12T18:03:28;86.82;;;22.05;;
67090;SDS011;54007;55.818;49.058;2023-04-12T18:05:54;77.22;;;22.70;;
67090;SDS011;54007;55.818;49.058;2023-04-12T18:08:20;77.87;;;21.52;;
67090;SDS011;54007;55.818;49.058;2023-04-12T18:10:46;71.00;;;18.70;;
67090;SDS011;54007;55.818;49.058;2023-04-12T18:13:12;57.07;;;18.40;;
67090;SDS011;54007;55.818;49.058;2023-04-12T18:15:38;61.63;;;17.80;;
67090;SDS011;54007;55.818;49.058;2023-04-12T18:18:04;73.80;;;19.25;;
67090;SDS011;54007;55.818;49.058;2023-04-12T18:20:30;65.57;;;18.02;;
67090;SDS011;54007;55.818;49.058;2023-04-12T18:22:56;61.77;;;17.40;;
67090;SDS011;54007;55.818;49.058;2023-04-12T18:25:22;66.70;;;16.80;;
67090;SDS011;54007;55.818;49.058;2023-04-12T18:27:48;57.73;;;16.07;;
67090;SDS011;54007;55.818;49.058;2023-04-12T18:30:18;51.98;;;15.95;;
67090;SDS011;54007;55.818;49.058;2023-04-12T18:32:44;63.85;;;16.90;;
67090;SDS011;54007;55.818;49.058;2023-04-12T18:35:17;56.40;;;16.65;;
67090;SDS011;54007;55.818;49.058;2023-04-12T18:37:43;47.23;;;15.80;;
67090;SDS011;54007;55.818;49.058;2023-04-12T18:40:09;52.62;;;15.20;;
67090;SDS011;54007;55.818;49.058;2023-04-12T18:42:35;50.83;;;15.53;;
67090;SDS011;54007;55.818;49.058;2023-04-12T18:45:01;42.78;;;16.15;;
67090;SDS011;54007;55.818;49.058;2023-04-12T18:47:27;57.73;;;16.30;;
67090;SDS011;54007;55.818;49.058;2023-04-12T18:49:53;57.75;;;15.32;;
67090;SDS011;54007;55.818;49.058;2023-04-12T18:52:19;53.15;;;15.53;;
67090;SDS011;54007;55.818;49.058;2023-04-12T18:54:45;48.08;;;15.72;;
67090;SDS011;54007;55.818;49.058;2023-04-12T18:57:12;51.48;;;17.17;;
67090;SDS011;54007;55.818;49.058;2023-04-12T18:59:37;62.93;;;16.70;;
67090;SDS011;54007;55.818;49.058;2023-04-12T19:02:03;58.35;;;17.20;;
67090;SDS011;54007;55.818;49.058;2023-04-12T19:04:29;70.80;;;18.60;;
67090;SDS011;54007;55.818;49.058;2023-04-12T19:06:55;62.83;;;16.65;;
67090;SDS011;54007;55.818;49.058;2023-04-12T19:09:21;64.60;;;17.73;;
67090;SDS011;54007;55.818;49.058;2023-04-12T19:11:47;64.30;;;17.45;;
67090;SDS011;54007;55.818;49.058;2023-04-12T19:14:13;57.20;;;16.35;;
67090;SDS011;54007;55.818;49.058;2023-04-12T19:16:39;58.90;;;16.27;;
67090;SDS011;54007;55.818;49.058;2023-04-12T19:19:05;50.63;;;15.83;;
67090;SDS011;54007;55.818;49.058;2023-04-12T19:21:31;50.40;;;15.75;;
67090;SDS011;54007;55.818;49.058;2023-04-12T19:23:56;52.97;;;15.07;;
67090;SDS011;54007;55.818;49.058;2023-04-12T19:26:22;47.80;;;15.60;;
67090;SDS011;54007;55.818;49.058;2023-04-12T19:28:48;63.73;;;19.97;;
67090;SDS011;54007;55.818;49.058;2023-04-12T19:31:14;52.88;;;21.45;;
67090;SDS011;54007;55.818;49.058;2023-04-12T19:33:40;69.47;;;21.95;;
67090;SDS011;54007;55.818;49.058;2023-04-12T19:36:06;59.97;;;21.17;;
67090;SDS011;54007;55.818;49.058;2023-04-12T19:38:31;61.45;;;21.12;;
